ADDS METAR Data INFO
IDs: Format: Raw Decoded Include TAF

Data at: 0250 UTC 21 Oct 2017

KVJI 210235Z AUTO 00000KT 10SM CLR 13/09 A3028 RMK AO2 T01330092
KVJI 210215Z AUTO 00000KT 10SM CLR 13/09 A3027 RMK AO2 T01290094
KVJI 210155Z AUTO 00000KT 10SM CLR 13/10 A3027 RMK AO2 T01340095
KVJI 210135Z AUTO 00000KT 10SM CLR 14/10 A3026 RMK AO2 T01350095
KVJI 210115Z AUTO 00000KT 10SM CLR 14/09 A3026 RMK AO2 T01350093
KVJI 210055Z AUTO 00000KT 10SM CLR 14/10 A3026 RMK AO2 T01400095
KVJI 210035Z AUTO 00000KT 10SM CLR 15/09 A3025 RMK AO2 T01520094
KVJI 210015Z AUTO 00000KT 10SM CLR 16/10 A3025 RMK AO2 T01550097
KVJI 202355Z AUTO 00000KT 10SM CLR 16/10 A3025 RMK AO2 T01600100 10242 20160
KVJI 202335Z AUTO 00000KT 10SM CLR 17/10 A3025 RMK AO2 T01680097
KVJI 202315Z AUTO 00000KT 10SM CLR 18/10 A3025 RMK AO2 T01800097
KVJI 202255Z AUTO 00000KT 10SM CLR 19/10 A3025 RMK AO2 T01900096
KVJI 202235Z AUTO 00000KT 10SM CLR 21/10 A3025 RMK AO2 T02080098
KVJI 202215Z AUTO 00000KT 10SM CLR 22/09 A3025 RMK AO2 T02230088
KVJI 202155Z AUTO 00000KT 10SM CLR 23/08 A3024 RMK AO2 T02320075
KVJI 202135Z AUTO 30003KT 10SM CLR 24/08 A3025 RMK AO2 T02370081
KVJI 202115Z AUTO 00000KT 10SM CLR 24/08 A3025 RMK AO2 T02370080
KVJI 202055Z AUTO 27003KT 10SM CLR 24/08 A3025 RMK AO2 T02410080
KVJI 202035Z AUTO 00000KT 10SM CLR 24/07 A3025 RMK AO2 T02380073
KVJI 202015Z AUTO 00000KT 10SM CLR 24/07 A3026 RMK AO2 T02350070
KVJI 201955Z AUTO 32004KT 10SM CLR 24/08 A3026 RMK AO2 T02400080
KVJI 201935Z AUTO 00000KT 10SM CLR 23/07 A3026 RMK AO2 T02320068
KVJI 201915Z AUTO 00000KT 10SM CLR 23/07 A3027 RMK AO2 T02310071
KVJI 201855Z AUTO 00000KT 10SM CLR 23/07 A3027 RMK AO2 T02270068
KVJI 201835Z AUTO 00000KT 10SM CLR 23/07 A3028 RMK AO2 T02260069
KVJI 201815Z AUTO 00000KT 10SM CLR 22/07 A3030 RMK AO2 T02240074
KVJI 201755Z AUTO 00000KT 10SM CLR 22/08 A3030 RMK AO2 T02170075 10221 20065
KVJI 201735Z AUTO 21003KT 10SM CLR 22/07 A3032 RMK AO2 T02190073
KVJI 201715Z AUTO 16004KT 10SM CLR 22/08 A3032 RMK AO2 T02160078
KVJI 201655Z AUTO 00000KT 10SM CLR 21/08 A3033 RMK AO2 T02120075
KVJI 201635Z AUTO 00000KT 10SM CLR 20/08 A3034 RMK AO2 T02020080
KVJI 201615Z AUTO 00000KT 10SM CLR 20/08 A3035 RMK AO2 T02000081
KVJI 201555Z AUTO 00000KT 10SM CLR 19/08 A3036 RMK AO2 T01940075
KVJI 201535Z AUTO 00000KT 10SM CLR 19/08 A3036 RMK AO2 T01890080
KVJI 201515Z AUTO 00000KT 10SM CLR 18/07 A3036 RMK AO2 T01790074
KVJI 201455Z AUTO 00000KT 10SM CLR 17/08 A3037 RMK AO2 T01680078
KVJI 201435Z AUTO 00000KT 10SM CLR 16/08 A3037 RMK AO2 T01600075
KVJI 201415Z AUTO 13003KT 10SM CLR 15/08 A3037 RMK AO2 T01480081
KVJI 201355Z AUTO 12003KT 10SM CLR 14/08 A3037 RMK AO2 T01390082
KVJI 201335Z AUTO 00000KT 10SM CLR 13/08 A3037 RMK AO2 T01280077
KVJI 201315Z AUTO 00000KT 10SM CLR 12/08 A3036 RMK AO2 T01160080
KVJI 201255Z AUTO 00000KT 10SM CLR 10/07 A3036 RMK AO2 T00950073
KVJI 201235Z AUTO 00000KT 10SM CLR 08/06 A3035 RMK AO2 T00810061
KVJI 201215Z AUTO 00000KT 10SM CLR 07/06 A3035 RMK AO2 T00730058
KVJI 201155Z AUTO 00000KT 10SM CLR 07/06 A3034 RMK AO2 T00670055 10085 20060
KVJI 201135Z AUTO 00000KT 10SM CLR 07/05 A3033 RMK AO2 T00670054
KVJI 201115Z AUTO 00000KT 10SM CLR 07/06 A3033 RMK AO2 T00660055
KVJI 201055Z AUTO 10003KT 10SM CLR 06/05 A3033 RMK AO2 T00600048
KVJI 201035Z AUTO 00000KT 10SM CLR 07/06 A3032 RMK AO2 T00690056
KVJI 201015Z AUTO 10004KT 10SM CLR 07/05 A3032 RMK AO2 T00660048
KVJI 200955Z AUTO 00000KT 10SM CLR 07/06 A3031 RMK AO2 T00710055
KVJI 200935Z AUTO 10003KT 10SM CLR 07/06 A3031 RMK AO2 T00700055
KVJI 200915Z AUTO 00000KT 10SM CLR 07/06 A3031 RMK AO2 T00710056
KVJI 200855Z AUTO 10003KT 10SM CLR 07/06 A3031 RMK AO2 T00720056
KVJI 200835Z AUTO 10003KT 10SM CLR 07/05 A3031 RMK AO2 T00690054
KVJI 200815Z AUTO 00000KT 10SM CLR 08/05 A3030 RMK AO2 T00750054
KVJI 200755Z AUTO 00000KT 10SM CLR 08/05 A3031 RMK AO2 T00750053
KVJI 200735Z AUTO 00000KT 10SM CLR 08/06 A3031 RMK AO2 T00800060
KVJI 200715Z AUTO 00000KT 10SM CLR 08/06 A3031 RMK AO2 T00800057
KVJI 200655Z AUTO 00000KT 10SM CLR 08/06 A3031 RMK AO2 T00750056
KVJI 200635Z AUTO 00000KT 10SM CLR 08/06 A3031 RMK AO2 T00800056
KVJI 200615Z AUTO 00000KT 10SM CLR 08/06 A3030 RMK AO2 T00810057
KVJI 200555Z AUTO 00000KT 10SM CLR 08/06 A3031 RMK AO2 T00820058 10139 20082 402150055
KVJI 200535Z AUTO 00000KT 10SM CLR 09/06 A3031 RMK AO2 T00890061
KVJI 200515Z AUTO 00000KT 10SM CLR 09/06 A3031 RMK AO2 T00890058
KVJI 200455Z AUTO 00000KT 10SM CLR 09/06 A3031 RMK AO2 T00910060
KVJI 200435Z AUTO 00000KT 10SM CLR 09/06 A3031 RMK AO2 T00930061
KVJI 200415Z AUTO 00000KT 10SM CLR 10/06 A3031 RMK AO2 T00950061
KVJI 200355Z AUTO 00000KT 10SM CLR 10/06 A3031 RMK AO2 T00970059
KVJI 200335Z AUTO 00000KT 10SM CLR 10/06 A3031 RMK AO2 T01000059
KVJI 200315Z AUTO 00000KT 10SM CLR 11/06 A3030 RMK AO2 T01050058
KVJI 200255Z AUTO 00000KT 10SM CLR 11/06 A3030 RMK AO2 T01050058
KVJI 200235Z AUTO 00000KT 10SM CLR 11/06 A3030 RMK AO2 T01050060
KVJI 200215Z AUTO 00000KT 10SM CLR 11/06 A3030 RMK AO2 T01110058
KVJI 200155Z AUTO 00000KT 10SM CLR 11/06 A3030 RMK AO2 T01130060
KVJI 200135Z AUTO 00000KT 10SM CLR 12/06 A3030 RMK AO2 T01190057
KVJI 200115Z AUTO 00000KT 10SM CLR 12/06 A3030 RMK AO2 T01200058
KVJI 200055Z AUTO 00000KT 10SM CLR 12/06 A3030 RMK AO2 T01210063
KVJI 200035Z AUTO 00000KT 10SM CLR 12/06 A3030 RMK AO2 T01230063
KVJI 200015Z AUTO 00000KT 10SM CLR 13/06 A3030 RMK AO2 T01300060
KVJI 192355Z AUTO 00000KT 10SM CLR 14/06 A3030 RMK AO2 T01390060 10215 20139
KVJI 192335Z AUTO 00000KT 10SM CLR 15/06 A3028 RMK AO2 T01460057
KVJI 192315Z AUTO 00000KT 10SM CLR 16/05 A3028 RMK AO2 T01560053
KVJI 192255Z AUTO 00000KT 10SM CLR 17/05 A3028 RMK AO2 T01700049
KVJI 192235Z AUTO 29003KT 10SM CLR 19/04 A3027 RMK AO2 T01850038
KVJI 192215Z AUTO 28003KT 10SM CLR 20/04 A3027 RMK AO2 T01970040
KVJI 192155Z AUTO 28005KT 10SM CLR 21/03 A3027 RMK AO2 T02050032
KVJI 192135Z AUTO 30004KT 10SM CLR 21/04 A3027 RMK AO2 T02080037
KVJI 192115Z AUTO 28005KT 10SM CLR 21/05 A3027 RMK AO2 T02100046
KVJI 192055Z AUTO 26005KT 10SM CLR 21/05 A3027 RMK AO2 T02130047
KVJI 192035Z AUTO 26005KT 10SM CLR 21/04 A3028 RMK AO2 T02130039
KVJI 192015Z AUTO 27006KT 10SM CLR 22/05 A3028 RMK AO2 T02150051
KVJI 191955Z AUTO 28003KT 10SM CLR 21/04 A3028 RMK AO2 T02100042
KVJI 191935Z AUTO 24007KT 10SM CLR 21/05 A3029 RMK AO2 T02080050
KVJI 191915Z AUTO 23006KT 10SM CLR 21/06 A3029 RMK AO2 T02100060
KVJI 191855Z AUTO 22006KT 10SM CLR 21/06 A3030 RMK AO2 T02080062
KVJI 191835Z AUTO 21005KT 10SM CLR 21/06 A3030 RMK AO2 T02070064
KVJI 191815Z AUTO 28004KT 10SM CLR 20/06 A3031 RMK AO2 T02040060
KVJI 191755Z AUTO 23005KT 10SM CLR 20/06 A3032 RMK AO2 T02000060 10200 20060
KVJI 191735Z AUTO 30005KT 10SM CLR 19/06 A3033 RMK AO2 T01920063
KVJI 191715Z AUTO 20003KT 10SM CLR 19/07 A3034 RMK AO2 T01940065
KVJI 191655Z AUTO 20003KT 10SM CLR 19/06 A3035 RMK AO2 T01900064
KVJI 191635Z AUTO 00000KT 10SM CLR 19/07 A3035 RMK AO2 T01860067
KVJI 191615Z AUTO 00000KT 10SM CLR 18/07 A3035 RMK AO2 T01820065
KVJI 191555Z AUTO 26003KT 10SM CLR 18/06 A3036 RMK AO2 T01770063
KVJI 191535Z AUTO 23005KT 10SM CLR 17/06 A3036 RMK AO2 T01700060
KVJI 191515Z AUTO 23003KT 10SM CLR 17/07 A3036 RMK AO2 T01650067
KVJI 191455Z AUTO 00000KT 10SM CLR 16/06 A3036 RMK AO2 T01570058